Time;durP1;ratioP1;P1;durP2;ratioP2;P2;SDS_P1;SDS_P2;PMS_P1;PMS_P2;Temp;Humidity;BMP_temperature;BMP_pressure;BME280_temperature;BME280_humidity;BME280_pressure;Samples;Min_cycle;Max_cycle;Signal;HPM_P1;HPM_P2
2023/11/20 00:02:24;;;;;;;12.73;2.15;;;11.30;99.90;;;11.22;97.30;99828.78;5000835;28;20489;-82
2023/11/20 00:04:52;;;;;;;15.23;2.90;;;11.30;99.90;;;11.24;96.98;99816.03;5001516;28;20046;-82
2023/11/20 00:07:20;;;;;;;14.75;3.42;;;11.30;99.90;;;11.26;97.10;99824.59;4984279;28;20409;-82
2023/11/20 00:09:48;;;;;;;10.88;2.42;;;11.40;99.90;;;11.25;96.89;99823.00;5005912;28;20092;-82
2023/11/20 00:12:18;;;;;;;13.80;2.67;;;11.40;99.90;;;11.19;96.46;99821.25;5020667;28;20041;-82
2023/11/20 00:14:45;;;;;;;12.40;2.92;;;11.30;99.90;;;11.22;96.80;99828.78;5003885;28;20049;-82
2023/11/20 00:17:13;;;;;;;11.45;2.40;;;11.30;99.90;;;11.24;96.66;99821.38;5003600;28;20053;-82
2023/11/20 00:19:45;;;;;;;13.15;2.33;;;11.40;99.90;;;11.26;96.67;99818.47;4985493;28;20548;-82
2023/11/20 00:22:12;;;;;;;;;;;11.40;99.90;;;11.23;96.18;99817.09;5021647;28;20050;-82
2023/11/20 00:24:40;;;;;;;13.00;2.65;;;11.40;99.90;;;11.22;96.20;99806.63;5003941;28;19921;-82
2023/11/20 00:27:09;;;;;;;13.63;3.20;;;11.40;99.90;;;11.18;95.98;99811.63;5003553;28;20042;-82
2023/11/20 00:29:37;;;;;;;12.88;2.58;;;11.40;99.90;;;11.19;96.09;99813.25;5002336;28;20045;-82
2023/11/20 00:32:06;;;;;;;15.00;2.90;;;11.40;99.90;;;11.16;96.05;99816.38;4987435;28;20045;-82
2023/11/20 00:34:37;;;;;;;14.07;2.60;;;11.30;99.90;;;11.19;96.04;99813.25;5020934;28;20497;-82
2023/11/20 00:37:06;;;;;;;18.98;3.50;;;11.40;99.90;;;11.22;95.44;99807.44;4987563;28;20046;-82
2023/11/20 00:39:34;;;;;;;16.60;3.22;;;11.40;99.90;;;11.23;95.01;99813.59;5003444;28;20121;-82
2023/11/20 00:42:01;;;;;;;17.38;3.22;;;11.40;99.90;;;11.27;95.40;99812.06;5003017;28;20081;-82
2023/11/20 00:44:29;;;;;;;15.23;2.90;;;11.40;99.90;;;11.27;95.16;99823.59;5003327;28;20113;-82
2023/11/20 00:46:57;;;;;;;12.68;2.47;;;11.40;99.90;;;11.26;95.23;99813.94;5003448;28;20065;-82
2023/11/20 00:49:24;;;;;;;13.57;3.35;;;11.30;99.90;;;11.26;95.01;99819.28;5003454;28;20038;-82
2023/11/20 00:51:51;;;;;;;14.35;2.47;;;11.30;99.90;;;11.28;94.49;99827.88;5003797;28;20563;-82
2023/11/20 00:54:21;;;;;;;15.27;2.92;;;11.30;99.90;;;11.32;94.61;99825.53;5003410;28;20057;-82
2023/11/20 00:56:48;;;;;;;16.48;3.28;;;11.40;99.90;;;11.28;94.10;99814.53;5003251;28;20548;-83
2023/11/20 00:59:16;;;;;;;14.60;2.47;;;11.40;99.90;;;11.26;93.96;99824.59;4971594;28;20045;-83
2023/11/20 01:01:44;;;;;;;22.38;3.13;;;11.40;99.90;;;11.26;93.96;99821.13;5003572;28;20065;-82
2023/11/20 01:04:11;;;;;;;12.98;2.58;;;11.40;99.90;;;11.22;93.91;99827.97;5003701;28;20060;-82
2023/11/20 01:06:40;;;;;;;14.98;2.88;;;11.30;99.90;;;11.27;94.01;99822.75;5003265;28;20050;-83
2023/11/20 01:09:08;;;;;;;10.30;2.38;;;11.40;99.90;;;11.29;93.79;99826.81;4986976;28;20054;-82
2023/11/20 01:11:37;;;;;;;15.18;2.75;;;11.40;99.90;;;11.27;93.17;99820.91;5004501;28;20041;-82
2023/11/20 01:14:07;;;;;;;13.48;2.50;;;11.40;99.90;;;11.25;93.29;99819.50;5020207;28;20073;-82
2023/11/20 01:16:35;;;;;;;16.15;2.65;;;11.40;99.90;;;11.26;93.38;99819.28;5003626;28;20050;-82
2023/11/20 01:19:03;;;;;;;18.58;3.75;;;11.40;99.90;;;11.25;93.32;99825.66;5021073;28;20088;-83
2023/11/20 01:21:32;;;;;;;13.15;2.70;;;11.40;99.90;;;11.28;93.54;99824.41;5021961;28;20038;-83
2023/11/20 01:24:00;;;;;;;12.30;2.58;;;11.40;99.90;;;11.24;93.72;99829.38;5021518;28;20502;-83
2023/11/20 01:26:28;;;;;;;14.25;2.88;;;11.40;99.90;;;11.25;94.10;99824.84;5021730;28;20050;-83
2023/11/20 01:28:57;;;;;;;10.30;2.40;;;11.40;99.90;;;11.25;93.72;99823.00;5004384;28;20041;-83
2023/11/20 01:31:26;;;;;;;17.67;2.90;;;11.40;99.90;;;11.23;93.23;99821.59;4971310;28;20457;-83
2023/11/20 01:33:54;;;;;;;18.20;2.55;;;11.40;99.90;;;11.26;93.59;99827.28;4987623;28;20050;-83
2023/11/20 01:36:22;;;;;;;13.32;2.88;;;11.40;99.90;;;11.26;93.65;99826.47;5004859;28;20077;-83
2023/11/20 01:38:51;;;;;;;15.95;2.42;;;11.30;99.90;;;11.20;93.14;99824.72;5004625;28;20512;-82
2023/11/20 01:41:19;;;;;;;16.58;3.22;;;11.30;99.90;;;11.16;93.56;99824.38;4988497;28;20046;-82
2023/11/20 01:43:47;;;;;;;12.63;2.45;;;11.30;99.90;;;11.26;93.62;99835.28;4988431;28;20505;-82
2023/11/20 01:46:17;;;;;;;13.43;2.85;;;11.30;99.90;;;11.26;93.47;99829.94;5004446;28;20049;-82
2023/11/20 01:48:45;;;;;;;11.63;2.55;;;11.40;99.90;;;11.25;92.75;99841.69;4989383;28;20108;-82
2023/11/20 01:51:13;;;;;;;16.45;2.58;;;11.30;99.90;;;11.28;93.00;99832.41;5008616;28;20042;-82
2023/11/20 01:53:42;;;;;;;13.70;2.28;;;11.40;99.90;;;11.27;92.82;99836.94;4992157;28;20104;-82
2023/11/20 01:56:13;;;;;;;8.40;2.05;;;11.40;99.90;;;11.25;92.71;99832.84;5008341;28;20069;-82
2023/11/20 01:58:41;;;;;;;13.52;2.30;;;11.30;99.90;;;11.26;92.70;99840.63;4992243;28;20077;-82
2023/11/20 02:01:09;;;;;;;9.57;1.90;;;11.30;99.90;;;11.25;92.11;99828.31;4992578;28;20057;-83
2023/11/20 02:03:38;;;;;;;8.35;2.15;;;11.40;99.90;;;11.29;92.35;99834.84;5010182;28;20076;-82
2023/11/20 02:06:07;;;;;;;9.02;1.98;;;11.40;99.90;;;11.34;92.35;99828.81;5027541;28;20063;-82
2023/11/20 02:08:34;;;;;;;9.82;2.38;;;11.40;99.90;;;11.29;91.24;99834.03;5010480;28;20046;-82
2023/11/20 02:11:04;;;;;;;11.50;2.20;;;11.40;99.90;;;11.33;92.00;99843.19;5011239;28;20060;-82
2023/11/20 02:13:32;;;;;;;13.07;2.03;;;11.40;99.90;;;11.37;91.99;99833.69;5010548;28;20053;-82
2023/11/20 02:16:00;;;;;;;11.32;2.90;;;11.40;99.90;;;11.27;91.46;99831.59;5011512;28;20078;-82
2023/11/20 02:18:33;;;;;;;10.30;2.20;;;11.40;99.90;;;11.24;91.46;99837.38;4993541;28;20061;-82
2023/11/20 02:21:04;;;;;;;10.73;2.28;;;11.30;99.90;;;11.24;91.53;99831.25;5010499;28;20058;-82
2023/11/20 02:23:32;;;;;;;10.05;1.85;;;11.30;99.90;;;11.24;91.51;99832.03;5027825;28;20102;-82
2023/11/20 02:26:24;;;;;;;9.98;1.73;;;11.30;99.90;;;11.29;91.59;99813.47;5010704;28;20046;-82
2023/11/20 02:29:05;;;;;;;9.00;2.15;;;11.40;99.90;;;11.31;91.65;99827.41;5006406;28;20500;-82
2023/11/20 02:31:35;;;;;;;7.90;2.40;;;11.40;99.90;;;11.27;91.74;99820.91;5024810;28;20072;-82
2023/11/20 02:34:03;;;;;;;11.38;2.00;;;11.40;99.90;;;11.31;91.23;99831.94;5009735;28;20065;-83
2023/11/20 02:36:31;;;;;;;13.45;2.38;;;11.40;99.90;;;11.32;91.49;99825.53;5006371;28;20101;-82
2023/11/20 02:38:58;;;;;;;11.63;2.90;;;11.40;99.90;;;11.33;91.29;99821.84;5005881;28;20469;-83
2023/11/20 02:41:26;;;;;;;14.20;2.60;;;11.40;99.90;;;11.26;91.38;99832.63;5005167;28;20390;-82
2023/11/20 02:43:53;;;;;;;11.52;2.08;;;11.30;99.90;;;11.15;91.63;99827.28;5005445;28;20046;-82
2023/11/20 02:46:21;;;;;;;14.10;2.42;;;11.30;99.90;;;11.22;92.20;99826.09;5005056;28;20532;-82
2023/11/20 02:48:50;;;;;;;12.10;2.38;;;11.30;99.90;;;11.22;92.15;99822.63;4973621;28;20521;-83
2023/11/20 02:51:17;;;;;;;16.67;2.92;;;11.30;99.90;;;11.18;92.33;99824.97;4989282;28;20054;-82
2023/11/20 02:53:46;;;;;;;13.48;2.80;;;11.40;99.90;;;11.23;92.42;99822.41;5022710;28;20037;-82
2023/11/20 02:56:13;;;;;;;12.73;3.00;;;11.30;99.90;;;11.23;92.42;99810.94;4988703;28;20448;-83
2023/11/20 02:58:41;;;;;;;15.35;2.80;;;11.30;99.90;;;11.19;92.73;99831.94;4988245;28;20136;-83
2023/11/20 03:01:09;;;;;;;13.23;2.75;;;11.30;99.90;;;11.24;93.21;99829.38;4988157;28;20417;-83
2023/11/20 03:03:39;;;;;;;17.85;3.35;;;11.30;99.90;;;11.20;93.49;99830.06;5004583;28;20137;-83
2023/11/20 03:06:09;;;;;;;20.63;3.33;;;11.30;99.90;;;11.22;93.19;99822.63;5003793;28;20146;-82
2023/11/20 03:08:36;;;;;;;13.73;2.70;;;11.30;99.90;;;11.19;93.79;99825.78;4988743;28;20465;-82
2023/11/20 03:11:05;;;;;;;13.90;3.08;;;11.30;99.90;;;11.23;93.67;99822.41;4988606;28;20096;-83
2023/11/20 03:13:32;;;;;;;12.70;3.20;;;11.30;99.90;;;11.21;93.50;99821.00;5021772;28;20046;-83
2023/11/20 03:16:00;;;;;;;15.75;3.30;;;11.30;99.90;;;11.19;93.71;99826.59;5005312;28;20069;-83
2023/11/20 03:18:27;;;;;;;19.20;3.25;;;11.30;99.90;;;11.21;93.80;99827.16;5004228;28;20050;-83
2023/11/20 03:20:55;;;;;;;20.77;3.83;;;11.30;99.90;;;11.26;93.42;99824.59;5021691;28;20030;-83
2023/11/20 03:23:25;;;;;;;21.75;3.83;;;11.30;99.90;;;11.26;93.11;99824.59;5004199;28;20069;-82
2023/11/20 03:25:53;;;;;;;18.60;3.42;;;11.30;99.90;;;11.24;92.79;99825.91;5004262;28;20123;-82
2023/11/20 03:28:24;;;;;;;17.67;3.67;;;11.30;99.90;;;11.21;92.95;99827.16;4988523;28;20050;-83
2023/11/20 03:30:52;;;;;;;17.92;3.25;;;11.30;99.90;;;11.22;92.93;99825.31;5021663;28;20053;-83
2023/11/20 03:33:20;;;;;;;22.05;4.97;;;11.30;99.90;;;11.22;92.82;99831.44;5004641;28;20144;-82
2023/11/20 03:35:48;;;;;;;18.52;4.00;;;11.30;99.90;;;11.15;92.51;99833.44;5004125;28;20100;-82
2023/11/20 03:38:17;;;;;;;25.40;3.67;;;11.30;99.90;;;11.10;92.58;99830.63;5004713;28;20053;-82
2023/11/20 03:40:46;;;;;;;13.52;3.20;;;11.20;99.90;;;11.11;92.45;99831.44;4987781;28;20141;-82
2023/11/20 03:43:13;;;;;;;19.60;4.10;;;11.20;99.90;;;11.18;92.76;99829.50;5003861;28;20126;-82
2023/11/20 03:45:41;;;;;;;17.33;3.70;;;11.20;99.90;;;11.23;92.41;99819.75;5003739;28;20190;-83
2023/11/20 03:48:08;;;;;;;20.33;4.47;;;11.30;99.90;;;11.21;92.28;99827.16;5003954;28;20050;-82
2023/11/20 03:50:36;;;;;;;23.27;4.53;;;11.30;99.90;;;11.19;91.38;99829.25;5021890;28;20050;-83
2023/11/20 03:53:03;;;;;;;16.77;3.75;;;11.30;99.90;;;11.21;91.56;99827.16;5004122;28;20042;-82
2023/11/20 03:55:31;;;;;;;18.52;3.50;;;11.30;99.90;;;11.21;91.32;99821.00;5022646;28;20125;-82
2023/11/20 03:58:01;;;;;;;23.58;4.43;;;11.30;99.90;;;11.22;91.48;99828.78;5021923;28;20125;-82
2023/11/20 04:00:29;;;;;;;19.65;3.70;;;11.30;99.90;;;11.22;91.39;99839.44;5021869;28;20045;-82
2023/11/20 04:02:59;;;;;;;16.30;3.00;;;11.30;99.90;;;11.18;91.35;99841.00;5003801;28;20046;-83
2023/11/20 04:05:27;;;;;;;20.02;4.15;;;11.30;99.90;;;11.19;91.40;99845.28;5004024;28;20073;-82
2023/11/20 04:07:55;;;;;;;21.30;3.45;;;11.20;99.90;;;11.21;91.53;99845.03;5021504;28;20042;-83
2023/11/20 04:10:22;;;;;;;16.33;3.20;;;11.20;99.90;;;11.21;91.76;99843.19;5004012;28;20069;-83
2023/11/20 04:12:50;;;;;;;20.75;3.33;;;11.30;99.90;;;11.21;92.20;99840.50;5003475;28;20065;-83
2023/11/20 04:15:21;;;;;;;20.10;3.58;;;11.30;99.90;;;11.22;92.46;99849.31;5003792;28;20041;-82
2023/11/20 04:17:48;;;;;;;16.77;3.47;;;11.20;99.90;;;11.23;92.47;99846.44;5003321;28;20100;-83
2023/11/20 04:20:17;;;;;;;21.60;3.72;;;11.30;99.90;;;11.29;92.10;99845.50;4987050;28;20054;-82
2023/11/20 04:22:44;;;;;;;18.95;3.13;;;11.30;99.90;;;11.16;91.02;99837.72;4986331;28;20152;-82
2023/11/20 04:25:12;;;;;;;23.67;3.60;;;11.20;99.90;;;11.18;91.45;99841.00;5003034;28;20045;-82
2023/11/20 04:27:39;;;;;;;13.52;2.75;;;11.20;99.90;;;11.16;91.38;99835.03;5003037;28;20054;-82
2023/11/20 04:30:10;;;;;;;22.60;3.80;;;11.20;99.90;;;11.09;91.34;99829.03;4987139;28;20084;-82
2023/11/20 04:32:40;;;;;;;16.80;3.72;;;11.20;99.90;;;11.11;91.60;99842.94;5020694;28;20045;-82
2023/11/20 04:35:08;;;;;;;23.48;4.60;;;11.20;99.90;;;11.09;91.87;99845.03;5002822;28;20065;-82
2023/11/20 04:37:36;;;;;;;19.00;3.47;;;11.20;99.90;;;11.14;92.03;99847.81;5020837;28;20057;-82
2023/11/20 04:40:04;;;;;;;18.35;3.42;;;11.20;99.90;;;11.12;91.76;99839.22;4987409;28;20038;-83
2023/11/20 04:42:32;;;;;;;15.30;2.95;;;11.20;99.90;;;11.14;91.69;99837.16;5004286;28;20049;-82
2023/11/20 04:44:59;;;;;;;19.20;2.90;;;11.20;99.90;;;11.17;91.59;99828.66;5020793;28;20104;-82
2023/11/20 04:47:28;;;;;;;17.80;2.90;;;11.20;99.90;;;11.14;91.41;99837.16;5002597;28;20050;-83
2023/11/20 04:49:57;;;;;;;16.73;2.83;;;11.20;99.90;;;11.18;91.20;99832.16;4986987;28;20145;-83
2023/11/20 04:52:25;;;;;;;13.38;3.50;;;11.20;99.90;;;11.12;91.14;99833.88;4987067;28;20084;-83
2023/11/20 04:54:55;;;;;;;14.15;2.92;;;11.20;99.90;;;11.14;91.40;99828.34;5004724;28;20421;-83
2023/11/20 04:57:24;;;;;;;13.23;3.05;;;11.20;99.90;;;11.09;91.29;99829.03;5019145;28;20045;-86
2023/11/20 04:59:52;;;;;;;20.15;3.33;;;11.20;99.90;;;11.06;91.21;99830.28;4999343;28;20038;-86
2023/11/20 05:02:19;;;;;;;12.80;2.78;;;11.20;99.90;;;11.12;91.17;99820.53;5015207;28;20050;-85
2023/11/20 05:04:47;;;;;;;11.30;3.00;;;11.10;99.90;;;11.09;90.62;99823.69;5016611;28;20046;-85
2023/11/20 05:07:16;;;;;;;14.48;3.17;;;11.20;99.90;;;11.14;90.56;99826.47;5000717;28;20042;-85
2023/11/20 05:09:44;;;;;;;12.00;2.70;;;11.20;99.90;;;11.15;90.52;99825.41;5017995;28;20046;-85
2023/11/20 05:12:11;;;;;;;9.10;2.30;;;11.20;99.90;;;11.10;90.03;99830.63;4996198;28;20046;-88
2023/11/20 05:14:39;;;;;;;13.00;2.75;;;11.10;99.90;;;11.07;90.21;99831.09;4996453;28;20046;-86
2023/11/20 05:17:07;;;;;;;13.38;2.83;;;11.10;99.90;;;11.09;90.10;99837.03;5014139;28;20041;-86
2023/11/20 05:19:35;;;;;;;14.20;3.17;;;11.10;99.90;;;11.14;90.16;99831.81;4996078;28;20057;-86
2023/11/20 05:22:02;;;;;;;12.32;2.65;;;11.10;99.90;;;11.07;89.81;99831.91;5014119;28;20053;-86
2023/11/20 05:24:31;;;;;;;17.38;4.05;;;11.10;99.90;;;11.03;89.38;99835.28;5000506;28;20049;-86
2023/11/20 05:26:58;;;;;;;13.07;2.80;;;11.10;99.90;;;11.03;89.88;99840.63;5000363;28;20057;-86
2023/11/20 05:29:26;;;;;;;10.48;3.10;;;11.10;99.90;;;11.04;89.74;99842.25;4983544;28;20100;-86
2023/11/20 05:31:54;;;;;;;15.90;3.05;;;11.10;99.90;;;10.99;89.84;99839.44;5001166;28;20505;-85
2023/11/20 05:34:21;;;;;;;14.05;3.00;;;11.10;99.90;;;10.99;90.31;99842.13;4985294;28;20042;-85
2023/11/20 05:36:50;;;;;;;12.68;2.70;;;11.10;99.90;;;11.01;90.29;99838.16;4984977;28;20050;-86
2023/11/20 05:39:19;;;;;;;16.17;2.78;;;11.10;99.90;;;11.03;90.46;99845.97;5000126;28;20042;-83
2023/11/20 05:41:52;;;;;;;10.23;2.80;;;11.10;99.90;;;11.00;90.61;99836.53;5002978;28;20053;-84
2023/11/20 05:44:20;;;;;;;10.05;2.70;;;11.10;99.90;;;11.06;90.60;99843.63;5008788;28;20054;-84
2023/11/20 05:46:48;;;;;;;10.60;2.53;;;11.10;99.90;;;11.08;90.39;99844.22;5007633;28;20046;-85
2023/11/20 05:49:15;;;;;;;17.48;2.70;;;11.10;99.90;;;11.07;89.95;99839.09;5021925;28;20098;-83
2023/11/20 05:51:43;;;;;;;12.07;2.80;;;11.10;99.90;;;11.11;90.13;99834.13;5008227;28;20081;-83
2023/11/20 05:54:12;;;;;;;11.85;2.88;;;11.10;99.90;;;11.12;90.01;99844.56;5005335;28;20041;-83
2023/11/20 05:56:40;;;;;;;12.43;3.20;;;11.20;99.90;;;11.12;89.93;99836.53;5009104;28;20096;-83
2023/11/20 05:59:12;;;;;;;10.68;2.60;;;11.20;99.90;;;11.16;90.06;99836.91;5009850;28;20045;-83
2023/11/20 06:01:43;;;;;;;10.75;3.22;;;11.20;99.90;;;11.20;89.81;99844.22;5011497;28;20370;-83
2023/11/20 06:04:12;;;;;;;12.93;3.55;;;11.20;99.90;;;11.15;89.40;99857.44;5010425;28;20046;-83
2023/11/20 06:06:40;;;;;;;15.25;3.25;;;11.20;99.90;;;11.18;89.61;99858.84;5026798;28;20068;-83
2023/11/20 06:09:10;;;;;;;13.95;3.60;;;11.20;99.90;;;11.18;89.91;99850.84;5008709;28;20398;-83
2023/11/20 06:11:38;;;;;;;14.95;3.88;;;11.20;99.90;;;11.17;90.09;99863.34;5008726;28;20104;-83
2023/11/20 06:14:06;;;;;;;12.90;3.55;;;11.20;99.90;;;11.16;90.19;99850.25;5008979;28;20464;-83
2023/11/20 06:16:35;;;;;;;20.40;4.30;;;11.20;99.90;;;11.14;89.71;99857.69;5008320;28;20070;-83
2023/11/20 06:19:02;;;;;;;19.23;3.90;;;11.20;99.90;;;11.14;90.22;99857.69;5026797;28;20059;-83
2023/11/20 06:21:30;;;;;;;10.18;3.50;;;11.20;99.90;;;11.19;90.42;99861.28;5026463;28;20088;-83
2023/11/20 06:23:57;;;;;;;16.67;3.72;;;11.20;99.90;;;11.21;90.53;99853.84;4991874;28;20072;-84
2023/11/20 06:26:28;;;;;;;16.08;3.70;;;11.20;99.90;;;11.20;90.26;99854.91;5026594;28;20073;-83
2023/11/20 06:28:55;;;;;;;17.25;4.30;;;11.20;99.90;;;11.14;89.65;99855.81;5026154;28;20046;-83
2023/11/20 06:31:23;;;;;;;16.45;4.40;;;11.20;99.90;;;11.19;89.86;99865.81;4975763;28;20049;-83
2023/11/20 06:33:52;;;;;;;18.48;4.07;;;11.10;99.90;;;11.20;89.90;99864.75;5008432;28;20577;-83
2023/11/20 06:36:23;;;;;;;16.92;4.13;;;11.20;99.90;;;11.19;89.28;99877.31;5040698;28;20049;-84
2023/11/20 06:38:50;;;;;;;20.48;4.93;;;11.20;99.90;;;11.22;89.39;99866.16;5027426;28;20057;-83
2023/11/20 06:41:18;;;;;;;21.35;4.40;;;11.20;99.90;;;11.18;89.16;99870.34;5026736;28;20042;-83
2023/11/20 06:43:46;;;;;;;22.77;4.80;;;11.20;99.90;;;11.19;89.69;99871.16;5025914;28;20464;-83
2023/11/20 06:46:17;;;;;;;24.38;5.05;;;11.20;99.90;;;11.20;89.30;99878.91;5026422;28;20045;-83
2023/11/20 06:48:45;;;;;;;17.98;4.93;;;11.20;99.90;;;11.16;88.96;99876.94;5041501;28;20128;-83
2023/11/20 06:51:17;;;;;;;17.80;4.60;;;11.20;99.90;;;11.15;88.79;99873.47;5008184;28;20145;-83
2023/11/20 06:53:45;;;;;;;22.20;5.40;;;11.10;99.90;;;11.19;88.79;99874.63;5025455;28;20042;-83
2023/11/20 06:56:17;;;;;;;27.42;5.03;;;11.10;99.90;;;11.07;88.03;99879.13;5008129;28;20046;-83
2023/11/20 06:58:46;;;;;;;21.98;5.13;;;11.10;99.90;;;11.06;88.10;99878.31;5024622;28;20112;-83
2023/11/20 07:01:13;;;;;;;19.38;4.85;;;11.10;99.90;;;11.09;88.27;99885.06;4991811;28;20045;-83
2023/11/20 07:03:42;;;;;;;25.55;6.10;;;11.10;99.90;;;11.03;88.16;99883.31;5040655;28;20048;-83
2023/11/20 07:06:12;;;;;;;21.67;5.10;;;11.10;99.90;;;11.08;88.33;99891.44;5041113;28;20064;-83
2023/11/20 07:08:44;;;;;;;23.38;4.50;;;11.10;99.90;;;11.10;87.77;99900.03;5025024;28;20050;-83
2023/11/20 07:11:12;;;;;;;21.65;5.35;;;11.10;99.90;;;11.08;87.31;99886.91;5026373;28;20057;-83
2023/11/20 07:13:39;;;;;;;21.23;5.25;;;11.10;99.90;;;11.02;86.90;99895.81;5040375;28;20104;-84
2023/11/20 07:16:08;;;;;;;22.27;5.20;;;11.10;99.90;;;11.07;87.57;99889.78;5026078;28;20437;-83
2023/11/20 07:18:37;;;;;;;23.67;5.50;;;11.10;99.90;;;11.04;87.01;99899.09;5025105;28;20046;-83
2023/11/20 07:21:07;;;;;;;18.50;4.50;;;11.10;99.90;;;10.98;87.03;99907.16;5023781;28;20093;-83
2023/11/20 07:23:35;;;;;;;18.83;4.70;;;11.00;99.90;;;10.82;86.45;99908.63;5025534;28;20046;-83
2023/11/20 07:26:04;;;;;;;20.83;4.28;;;11.00;99.90;;;10.92;87.35;99910.75;5024716;28;20405;-83
2023/11/20 07:28:33;;;;;;;24.52;4.82;;;11.00;99.90;;;10.97;87.63;99911.69;5039723;28;20137;-83
2023/11/20 07:31:02;;;;;;;21.85;4.65;;;11.10;99.90;;;11.02;87.84;99916.34;5007861;28;20046;-83
2023/11/20 07:33:29;;;;;;;22.40;4.03;;;11.10;99.90;;;11.06;87.58;99925.53;5025140;28;20054;-83
2023/11/20 07:35:58;;;;;;;20.13;4.35;;;11.10;99.90;;;11.02;87.23;99922.50;5007630;28;20045;-83
2023/11/20 07:38:26;;;;;;;20.42;4.25;;;11.10;99.90;;;11.03;86.90;99926.81;5023786;28;20060;-83
2023/11/20 07:40:54;;;;;;;25.55;4.80;;;11.10;99.90;;;11.04;86.98;99927.63;5007332;28;20130;-83
2023/11/20 07:43:23;;;;;;;19.00;4.43;;;11.10;99.90;;;11.05;86.60;99929.25;5006994;28;20083;-83
2023/11/20 07:45:51;;;;;;;22.20;4.68;;;11.10;99.90;;;11.01;86.90;99922.72;5022448;28;20513;-83
2023/11/20 07:48:18;;;;;;;21.23;4.40;;;11.10;99.90;;;11.01;86.29;99934.22;5040360;28;20049;-83
2023/11/20 07:50:49;;;;;;;21.27;4.45;;;11.10;99.90;;;10.99;85.94;99920.31;5007282;28;20072;-83
2023/11/20 07:53:17;;;;;;;20.48;4.00;;;11.10;99.90;;;11.00;86.23;99926.44;5007130;28;20105;-83
2023/11/20 07:55:44;;;;;;;20.77;4.05;;;11.10;99.90;;;11.01;85.98;99936.06;5025496;28;20121;-83
2023/11/20 07:58:11;;;;;;;24.98;4.43;;;11.10;99.90;;;10.96;85.85;99928.75;5024262;28;20050;-83
2023/11/20 08:00:40;;;;;;;24.70;4.68;;;11.00;99.90;;;10.94;85.65;99927.38;5008852;28;20457;-83
2023/11/20 08:03:08;;;;;;;18.70;3.78;;;11.00;99.90;;;10.93;85.05;99921.22;5040048;28;20420;-83
2023/11/20 08:05:36;;;;;;;30.48;4.95;;;11.00;99.90;;;10.83;84.93;99921.75;5007115;28;20041;-83
2023/11/20 08:08:04;;;;;;;22.00;3.97;;;11.00;99.90;;;10.88;85.64;99930.91;5007220;28;20049;-83
2023/11/20 08:10:32;;;;;;;20.70;3.75;;;11.00;99.90;;;10.92;85.42;99918.75;5006562;28;20046;-83
2023/11/20 08:13:00;;;;;;;24.15;4.25;;;11.00;99.90;;;10.96;85.33;99917.28;5006862;28;20049;-83
2023/11/20 08:15:27;;;;;;;22.42;4.32;;;11.00;99.90;;;10.91;84.77;99912.63;5006586;28;20056;-83
2023/11/20 08:17:59;;;;;;;29.90;4.13;;;11.00;99.90;;;10.95;84.98;99920.97;5005375;28;20054;-83
2023/11/20 08:20:29;;;;;;;22.17;4.43;;;10.90;99.90;;;10.96;84.38;99917.28;5007072;28;20042;-83
2023/11/20 08:22:57;;;;;;;20.45;4.30;;;10.90;99.90;;;10.91;83.92;99917.94;5007770;28;20054;-83
2023/11/20 08:25:25;;;;;;;27.92;4.40;;;10.90;99.90;;;10.82;84.03;99920.09;5039474;28;20049;-83
2023/11/20 08:27:53;;;;;;;25.30;4.07;;;10.90;99.90;;;10.82;84.45;99924.63;5006671;28;20072;-83
2023/11/20 08:30:22;;;;;;;22.73;4.68;;;10.90;99.90;;;10.82;84.39;99920.09;5023053;28;20133;-83
2023/11/20 08:32:49;;;;;;;23.27;5.43;;;10.90;99.90;;;10.70;83.33;99916.59;5006884;28;20049;-83
2023/11/20 08:35:18;;;;;;;29.83;4.47;;;10.80;99.90;;;10.71;84.18;99923.56;4990752;28;20144;-83
2023/11/20 08:37:46;;;;;;;21.48;4.72;;;10.80;99.90;;;10.73;84.42;99920.66;5024493;28;20413;-83
2023/11/20 08:40:14;;;;;;;21.27;4.10;;;10.80;99.90;;;10.79;84.52;99925.91;5024350;28;20053;-83
2023/11/20 08:42:42;;;;;;;27.52;4.50;;;10.80;99.90;;;10.81;84.49;99917.69;5024356;28;20464;-83
2023/11/20 08:45:10;;;;;;;18.55;4.38;;;10.80;99.90;;;10.81;83.99;99915.00;5024069;28;20453;-83
2023/11/20 08:47:39;;;;;;;26.13;4.68;;;10.90;99.90;;;10.85;84.16;99918.84;5006761;28;20131;-83
2023/11/20 08:50:09;;;;;;;21.83;4.45;;;10.90;99.90;;;10.86;84.19;99919.66;5024527;28;20046;-83
2023/11/20 08:52:39;;;;;;;21.40;4.23;;;10.90;99.90;;;10.89;84.15;99929.91;5024678;28;20080;-83
2023/11/20 08:55:08;;;;;;;26.27;4.22;;;10.90;99.90;;;10.81;83.58;99917.69;5023884;28;20335;-83
2023/11/20 08:57:36;;;;;;;26.88;5.05;;;10.90;99.90;;;10.83;83.84;99927.09;5025195;28;20563;-83
2023/11/20 09:00:05;;;;;;;20.42;4.00;;;10.90;99.90;;;10.71;83.93;99928.88;5027667;28;20056;-83
2023/11/20 09:02:34;;;;;;;20.75;4.25;;;10.90;99.90;;;10.77;84.09;99943.97;5010238;28;20500;-83
2023/11/20 09:05:02;;;;;;;23.05;4.68;;;10.90;99.90;;;10.80;83.57;99940.06;5028909;28;20120;-83
2023/11/20 09:07:34;;;;;;;26.15;4.45;;;11.00;99.90;;;10.80;84.57;99938.22;5027273;28;20042;-83
2023/11/20 09:10:04;;;;;;;19.65;4.60;;;11.00;99.90;;;10.92;84.66;99934.75;5043164;28;20049;-83
2023/11/20 09:12:33;;;;;;;25.13;4.35;;;11.00;99.90;;;10.94;83.96;99940.72;5010996;28;20080;-83
2023/11/20 09:15:05;;;;;;;22.33;3.92;;;11.00;99.90;;;10.93;84.30;99929.22;5027393;28;20041;-83
2023/11/20 09:17:34;;;;;;;26.88;4.28;;;11.10;99.90;;;10.93;83.89;99931.88;5010451;28;20049;-83
2023/11/20 09:20:02;;;;;;;20.95;3.67;;;11.00;99.90;;;10.97;84.31;99946.38;5010529;28;20046;-83
2023/11/20 09:22:30;;;;;;;26.02;4.40;;;11.00;99.90;;;10.99;83.80;99938.16;5025846;28;20042;-83
2023/11/20 09:24:58;;;;;;;15.60;3.45;;;11.00;99.90;;;10.95;83.37;99948.47;4993459;28;20096;-83
2023/11/20 09:27:27;;;;;;;17.15;3.55;;;11.00;99.90;;;10.98;83.58;99944.53;5025784;28;20042;-83
2023/11/20 09:29:54;;;;;;;22.27;3.88;;;11.00;99.90;;;10.97;83.46;99943.72;5027468;28;20046;-83
2023/11/20 09:32:22;;;;;;;20.33;3.60;;;11.00;99.90;;;11.00;83.40;99940.59;5010577;28;20533;-83
2023/11/20 09:34:50;;;;;;;26.75;4.40;;;11.00;99.90;;;11.01;83.04;99944.09;5009306;28;20050;-83
2023/11/20 09:37:18;;;;;;;24.40;4.13;;;11.10;99.90;;;11.07;83.88;99941.31;5042789;28;20049;-83
2023/11/20 09:39:48;;;;;;;20.55;3.60;;;11.10;99.90;;;11.07;83.48;99943.97;5005107;28;20077;-84
2023/11/20 09:42:18;;;;;;;24.75;4.20;;;11.20;99.90;;;11.14;83.67;99927.88;5024224;28;20053;-84
2023/11/20 09:44:51;;;;;;;18.63;3.47;;;11.20;99.90;;;11.19;83.85;99936.03;5038094;28;20054;-85
2023/11/20 09:47:20;;;;;;;17.42;3.72;;;11.30;99.90;;;11.19;83.16;99941.34;5004845;28;20065;-85
2023/11/20 09:49:48;;;;;;;20.42;3.58;;;11.30;99.90;;;11.21;83.80;99939.25;5004781;28;20073;-85
2023/11/20 09:52:18;;;;;;;21.33;4.07;;;11.30;99.90;;;11.29;83.86;99932.78;5020950;28;20061;-85
2023/11/20 09:54:45;;;;;;;19.05;3.67;;;11.30;99.90;;;11.25;83.23;99934.28;5038621;28;20049;-85
2023/11/20 09:57:14;;;;;;;19.45;3.88;;;11.40;99.90;;;11.25;82.61;99937.78;5022236;28;20137;-85
2023/11/20 09:59:41;;;;;;;19.33;4.32;;;11.40;99.90;;;11.21;82.59;99931.25;5021882;28;20046;-84
2023/11/20 10:02:11;;;;;;;15.38;3.17;;;11.30;99.90;;;11.24;82.74;99924.66;5023933;28;20576;-85
2023/11/20 10:04:44;;;;;;;20.77;4.07;;;11.30;99.90;;;11.23;82.94;99931.84;4989463;28;20042;-85
2023/11/20 10:07:16;;;;;;;20.60;3.92;;;11.30;99.90;;;11.20;82.87;99937.66;5023737;28;20056;-85
2023/11/20 10:09:51;;;;;;;19.23;3.40;;;11.30;99.90;;;11.21;83.33;99933.94;5022713;28;20063;-85
2023/11/20 10:12:23;;;;;;;22.83;3.88;;;11.20;99.90;;;11.25;83.38;99935.09;5023220;28;20049;-85
2023/11/20 10:14:52;;;;;;;19.35;4.03;;;11.20;99.90;;;11.22;83.35;99934.75;5023741;28;20038;-85
2023/11/20 10:17:23;;;;;;;23.08;3.58;;;11.20;99.90;;;11.19;84.23;99935.22;5007464;28;20045;-85
2023/11/20 10:19:51;;;;;;;17.63;3.22;;;11.20;99.90;;;11.18;84.67;99926.41;5024952;28;20045;-84